createdAt,value
2017-09-07T00:01:34.270Z,56.70
2017-09-07T00:04:01.787Z,56.70
2017-09-07T00:06:29.371Z,56.70
2017-09-07T00:08:57.026Z,56.80
2017-09-07T00:11:24.682Z,56.70
2017-09-07T00:13:52.347Z,56.70
2017-09-07T00:16:20.009Z,56.70
2017-09-07T00:18:47.523Z,56.70
2017-09-07T00:21:15.111Z,56.70
2017-09-07T00:23:42.627Z,57.40
2017-09-07T00:26:10.231Z,56.70
2017-09-07T00:28:37.763Z,56.70
2017-09-07T00:31:05.342Z,56.70
2017-09-07T00:33:32.855Z,56.70
2017-09-07T00:36:00.347Z,56.70
2017-09-07T00:38:27.951Z,56.70
2017-09-07T00:40:55.562Z,56.70
2017-09-07T00:43:23.226Z,56.70
2017-09-07T00:45:50.763Z,56.70
2017-09-07T00:48:18.536Z,56.70
2017-09-07T00:50:46.051Z,56.70
2017-09-07T00:53:13.551Z,56.60
2017-09-07T00:55:41.158Z,56.70
2017-09-07T00:58:08.646Z,56.60
2017-09-07T01:00:36.229Z,56.60
2017-09-07T01:03:03.723Z,56.70
2017-09-07T01:05:32.003Z,56.60
2017-09-07T01:08:00.435Z,56.60
2017-09-07T01:10:27.960Z,56.50
2017-09-07T01:12:56.223Z,56.60
2017-09-07T01:15:23.735Z,56.60
2017-09-07T01:17:51.466Z,56.70
2017-09-07T01:20:19.127Z,56.60
2017-09-07T01:22:46.787Z,56.60
2017-09-07T01:25:14.445Z,56.60
2017-09-07T01:27:41.975Z,56.50
2017-09-07T01:30:09.574Z,56.60
2017-09-07T01:32:37.179Z,56.60
2017-09-07T01:35:04.680Z,56.60
2017-09-07T01:37:32.330Z,56.60
2017-09-07T01:39:59.989Z,56.70
2017-09-07T01:42:27.515Z,56.60
2017-09-07T01:44:55.099Z,56.70
2017-09-07T01:47:22.755Z,56.70
2017-09-07T01:49:50.366Z,56.50
2017-09-07T01:52:18.079Z,56.60
2017-09-07T01:54:45.591Z,56.60
2017-09-07T01:57:13.104Z,56.50
2017-09-07T01:59:40.850Z,56.60
2017-09-07T02:02:08.364Z,56.60
2017-09-07T02:04:35.872Z,56.60
2017-09-07T02:07:03.419Z,56.60
2017-09-07T02:09:30.923Z,56.50
2017-09-07T02:11:58.438Z,56.60
2017-09-07T02:14:25.995Z,56.50
2017-09-07T02:16:53.611Z,56.60
2017-09-07T02:19:21.107Z,56.60
2017-09-07T02:21:48.603Z,56.60
2017-09-07T02:24:16.216Z,56.50
2017-09-07T02:26:43.715Z,56.60
2017-09-07T02:29:11.242Z,56.60
2017-09-07T02:31:38.795Z,56.50
2017-09-07T02:34:06.310Z,56.50
2017-09-07T02:36:34.091Z,56.60
2017-09-07T02:39:01.756Z,56.60
2017-09-07T02:41:29.410Z,56.50
2017-09-07T02:43:57.075Z,56.50
2017-09-07T02:46:24.723Z,56.50
2017-09-07T02:48:52.247Z,56.50
2017-09-07T02:51:19.835Z,56.50
2017-09-07T02:53:47.501Z,56.50
2017-09-07T02:56:15.003Z,56.50
2017-09-07T02:58:42.611Z,56.50
2017-09-07T03:01:10.168Z,56.50
2017-09-07T03:03:37.668Z,56.60
2017-09-07T03:06:05.379Z,56.50
2017-09-07T03:08:32.874Z,56.50
2017-09-07T03:11:00.491Z,56.50
2017-09-07T03:13:28.154Z,56.50
2017-09-07T03:15:55.668Z,56.40
2017-09-07T03:18:23.167Z,56.50
2017-09-07T03:20:50.766Z,56.50
2017-09-07T03:23:18.391Z,56.50
2017-09-07T03:25:46.030Z,56.40
2017-09-07T03:28:13.530Z,56.40
2017-09-07T03:30:41.051Z,56.40
2017-09-07T03:33:08.817Z,56.40
2017-09-07T03:35:36.471Z,56.40
2017-09-07T03:38:03.982Z,56.40
2017-09-07T03:40:31.578Z,56.40
2017-09-07T03:42:59.070Z,56.50
2017-09-07T03:45:26.579Z,56.40
2017-09-07T03:47:54.364Z,56.40
2017-09-07T03:50:21.867Z,56.40
2017-09-07T03:52:49.671Z,56.40
2017-09-07T03:55:17.324Z,56.30
2017-09-07T03:57:44.838Z,56.30
2017-09-07T04:00:12.337Z,56.40
2017-09-07T04:02:39.947Z,56.40
2017-09-07T04:05:07.552Z,56.40
2017-09-07T04:07:35.215Z,56.40
2017-09-07T04:10:02.727Z,56.40
2017-09-07T04:12:30.338Z,56.30
2017-09-07T04:14:57.983Z,56.30
2017-09-07T04:17:25.642Z,56.40
2017-09-07T04:19:53.308Z,56.30
2017-09-07T04:22:20.895Z,56.30
2017-09-07T04:24:48.615Z,56.40
2017-09-07T04:27:16.111Z,56.30
2017-09-07T04:29:43.762Z,56.30
2017-09-07T04:32:11.387Z,56.30
2017-09-07T04:34:39.039Z,56.30
2017-09-07T04:37:06.703Z,56.20
2017-09-07T04:39:34.339Z,56.30
2017-09-07T04:42:01.859Z,57.00
2017-09-07T04:44:29.362Z,56.40
2017-09-07T04:46:56.969Z,56.40
2017-09-07T04:49:24.490Z,56.50
2017-09-07T04:51:52.055Z,56.60
2017-09-07T04:54:19.559Z,56.60
2017-09-07T04:56:47.169Z,55.80
2017-09-07T04:59:14.771Z,57.30
2017-09-07T05:01:42.299Z,56.60
2017-09-07T05:04:09.923Z,56.70
2017-09-07T05:06:37.449Z,56.60
2017-09-07T05:09:04.952Z,56.60
2017-09-07T05:11:32.491Z,57.00
2017-09-07T05:13:59.995Z,56.70
2017-09-07T05:16:27.496Z,56.90
2017-09-07T05:18:55.063Z,56.90
2017-09-07T05:21:22.681Z,56.90
2017-09-07T05:23:50.744Z,56.90
2017-09-07T05:26:18.419Z,57.00
2017-09-07T05:28:46.107Z,57.00
2017-09-07T05:31:13.767Z,57.00
2017-09-07T05:33:41.302Z,57.00
2017-09-07T05:36:08.906Z,57.10
2017-09-07T05:38:36.448Z,56.80
2017-09-07T05:41:03.991Z,56.70
2017-09-07T05:43:31.525Z,56.90
2017-09-07T05:45:59.023Z,57.00
2017-09-07T05:48:26.550Z,57.80
2017-09-07T05:50:54.050Z,57.70
2017-09-07T05:53:22.415Z,57.00
2017-09-07T05:55:49.914Z,58.80
2017-09-07T05:58:17.414Z,58.10
2017-09-07T06:00:44.915Z,59.00
2017-09-07T06:03:12.414Z,58.40
2017-09-07T06:05:40.023Z,59.50
2017-09-07T06:08:07.635Z,59.30
2017-09-07T06:10:35.160Z,59.20
2017-09-07T06:13:02.936Z,59.40
2017-09-07T06:15:30.495Z,59.20
2017-09-07T06:17:57.994Z,59.20
2017-09-07T06:20:25.527Z,59.30
2017-09-07T06:22:53.035Z,59.00
2017-09-07T06:25:20.575Z,59.10
2017-09-07T06:27:48.095Z,59.20
2017-09-07T06:30:15.607Z,58.90
2017-09-07T06:32:43.118Z,58.90
2017-09-07T06:35:10.644Z,59.10
2017-09-07T06:37:38.151Z,58.90
2017-09-07T06:40:05.651Z,59.50
2017-09-07T06:42:33.228Z,58.60
2017-09-07T06:45:00.875Z,58.90
2017-09-07T06:47:28.369Z,58.40
2017-09-07T06:49:55.866Z,58.90
2017-09-07T06:52:23.418Z,58.70
2017-09-07T06:54:50.937Z,58.80
2017-09-07T06:57:18.471Z,58.90
2017-09-07T06:59:46.000Z,58.70
2017-09-07T07:02:13.667Z,58.80
2017-09-07T07:04:41.187Z,59.00
2017-09-07T07:07:09.466Z,58.80
2017-09-07T07:09:37.070Z,58.70
2017-09-07T07:12:04.707Z,58.90
2017-09-07T07:14:32.200Z,59.00
2017-09-07T07:16:59.823Z,58.70
2017-09-07T07:19:27.470Z,58.90
2017-09-07T07:21:54.974Z,58.70
2017-09-07T07:24:22.587Z,59.50
2017-09-07T07:26:50.254Z,58.80
2017-09-07T07:29:17.909Z,58.90
2017-09-07T07:31:45.402Z,58.90
2017-09-07T07:34:12.921Z,58.70
2017-09-07T07:36:40.558Z,58.80
2017-09-07T07:39:08.159Z,58.80
2017-09-07T07:41:35.660Z,58.60
2017-09-07T07:44:03.309Z,59.00
2017-09-07T07:46:30.808Z,58.80
2017-09-07T07:48:58.559Z,59.00
2017-09-07T07:51:26.055Z,58.60
2017-09-07T07:53:53.666Z,59.00
2017-09-07T07:56:21.166Z,58.70
2017-09-07T07:58:48.779Z,58.90
2017-09-07T08:01:16.639Z,58.80
2017-09-07T08:03:44.148Z,59.00
2017-09-07T08:06:11.751Z,58.70
2017-09-07T08:08:39.243Z,58.90
2017-09-07T08:11:06.743Z,58.60
2017-09-07T08:13:34.348Z,58.60
2017-09-07T08:16:01.871Z,58.80
2017-09-07T08:18:29.435Z,58.60
2017-09-07T08:20:56.951Z,58.60
2017-09-07T08:23:24.445Z,58.60
2017-09-07T08:25:52.000Z,58.60
2017-09-07T08:28:19.503Z,58.60
2017-09-07T08:30:47.117Z,58.40
2017-09-07T08:33:14.615Z,58.60
2017-09-07T08:35:42.143Z,58.30
2017-09-07T08:38:09.699Z,58.40
2017-09-07T08:40:37.440Z,58.40
2017-09-07T08:43:04.944Z,58.40
2017-09-07T08:45:32.479Z,58.30
2017-09-07T08:48:00.114Z,58.30
2017-09-07T08:50:27.775Z,58.50
2017-09-07T08:52:55.275Z,58.40
2017-09-07T08:55:22.769Z,58.40
2017-09-07T08:57:50.339Z,58.50
2017-09-07T09:00:18.008Z,58.30
2017-09-07T09:02:45.679Z,58.50
2017-09-07T09:05:13.315Z,58.40
2017-09-07T09:07:40.971Z,58.30
2017-09-07T09:10:08.631Z,58.50
2017-09-07T09:12:36.290Z,58.50
2017-09-07T09:15:03.951Z,58.50
2017-09-07T09:17:31.454Z,58.50
2017-09-07T09:19:59.068Z,58.50
2017-09-07T09:22:26.562Z,58.50
2017-09-07T09:24:54.055Z,58.60
2017-09-07T09:27:21.631Z,58.40
2017-09-07T09:29:49.295Z,58.40
2017-09-07T09:32:16.958Z,58.30
2017-09-07T09:34:44.621Z,58.40
2017-09-07T09:37:12.277Z,58.40
2017-09-07T09:39:39.804Z,58.20
2017-09-07T09:42:07.370Z,58.30
2017-09-07T09:44:35.034Z,58.50
2017-09-07T09:47:02.776Z,58.10
2017-09-07T09:49:30.550Z,58.30
2017-09-07T09:51:58.163Z,58.30
2017-09-07T09:54:25.884Z,58.40
2017-09-07T09:56:53.393Z,58.40
2017-09-07T09:59:20.988Z,58.30
2017-09-07T10:01:48.661Z,58.20
2017-09-07T10:04:16.223Z,58.20
2017-09-07T10:06:43.719Z,58.20
2017-09-07T10:09:11.415Z,58.20
2017-09-07T10:11:38.951Z,58.40
2017-09-07T10:14:07.347Z,58.30
2017-09-07T10:16:34.887Z,58.30
2017-09-07T10:19:02.663Z,58.30
2017-09-07T10:21:30.176Z,58.30
2017-09-07T10:23:57.779Z,58.20
2017-09-07T10:26:25.311Z,58.20
2017-09-07T10:28:53.105Z,58.30
2017-09-07T10:31:20.615Z,58.20
2017-09-07T10:33:48.206Z,58.20
2017-09-07T10:36:15.863Z,58.80
2017-09-07T10:38:43.366Z,58.40
2017-09-07T10:41:10.870Z,58.10
2017-09-07T10:43:38.459Z,58.20
2017-09-07T10:46:06.102Z,58.00
2017-09-07T10:48:33.760Z,58.30
2017-09-07T10:51:01.327Z,58.10
2017-09-07T10:53:28.921Z,58.10
2017-09-07T10:55:56.430Z,58.00
2017-09-07T10:58:24.075Z,58.20
2017-09-07T11:00:51.634Z,58.20
2017-09-07T11:03:19.171Z,58.10
2017-09-07T11:05:46.670Z,58.00
2017-09-07T11:08:14.421Z,58.10
2017-09-07T11:10:41.991Z,58.10
2017-09-07T11:13:09.519Z,58.00
2017-09-07T11:15:37.175Z,58.10
2017-09-07T11:18:04.835Z,58.10
2017-09-07T11:20:32.494Z,58.10
2017-09-07T11:23:00.162Z,58.10
2017-09-07T11:25:27.815Z,58.10
2017-09-07T11:27:55.315Z,58.10
2017-09-07T11:30:22.930Z,58.00
2017-09-07T11:32:50.458Z,58.00
2017-09-07T11:35:18.044Z,57.90
2017-09-07T11:37:45.783Z,58.00
2017-09-07T11:40:14.187Z,58.10
2017-09-07T11:42:41.820Z,58.00
2017-09-07T11:45:09.344Z,57.80
2017-09-07T11:47:36.839Z,58.00
2017-09-07T11:50:04.621Z,58.10
2017-09-07T11:52:32.280Z,58.10
2017-09-07T11:54:59.895Z,58.00
2017-09-07T11:57:27.400Z,57.90
2017-09-07T11:59:54.895Z,57.80
2017-09-07T12:02:22.686Z,58.00
2017-09-07T12:04:50.180Z,58.00
2017-09-07T12:07:17.803Z,57.90
2017-09-07T12:09:45.415Z,58.00
2017-09-07T12:12:12.931Z,58.00
2017-09-07T12:14:40.427Z,58.00
2017-09-07T12:17:08.111Z,57.90
2017-09-07T12:19:35.704Z,57.90
2017-09-07T12:22:03.227Z,58.00
2017-09-07T12:24:31.503Z,57.90
2017-09-07T12:26:59.085Z,58.00
2017-09-07T12:29:26.582Z,58.00
2017-09-07T12:31:54.183Z,57.90
2017-09-07T12:34:21.757Z,57.90
2017-09-07T12:36:49.355Z,57.90
2017-09-07T12:39:16.960Z,57.90
2017-09-07T12:41:44.466Z,57.80
2017-09-07T12:44:11.967Z,57.90
2017-09-07T12:46:39.527Z,57.90
2017-09-07T12:49:07.185Z,57.90
2017-09-07T12:51:34.854Z,57.90
2017-09-07T12:54:02.363Z,57.90
2017-09-07T12:56:29.971Z,57.80
2017-09-07T12:58:57.490Z,57.80
2017-09-07T13:01:25.080Z,57.80
2017-09-07T13:03:52.595Z,57.70
2017-09-07T13:06:20.190Z,57.80
2017-09-07T13:08:47.935Z,58.40
2017-09-07T13:11:15.594Z,57.80
2017-09-07T13:13:43.255Z,58.40
2017-09-07T13:16:11.095Z,57.80
2017-09-07T13:18:38.601Z,57.90
2017-09-07T13:21:06.353Z,57.90
2017-09-07T13:23:33.859Z,57.70
2017-09-07T13:26:01.365Z,57.80
2017-09-07T13:28:28.927Z,57.80
2017-09-07T13:30:56.424Z,57.80
2017-09-07T13:33:23.916Z,57.80
2017-09-07T13:35:51.471Z,57.80
2017-09-07T13:38:18.963Z,57.80
2017-09-07T13:40:46.588Z,57.70
2017-09-07T13:43:14.243Z,57.70
2017-09-07T13:45:41.907Z,57.60
2017-09-07T13:48:09.403Z,57.70
2017-09-07T13:50:36.899Z,57.60
2017-09-07T13:53:04.680Z,57.50
2017-09-07T13:55:32.813Z,57.80
2017-09-07T13:58:00.608Z,57.70
2017-09-07T14:00:28.103Z,57.70
2017-09-07T14:02:55.595Z,57.60
2017-09-07T14:05:24.002Z,57.70
2017-09-07T14:07:51.535Z,57.60
2017-09-07T14:10:19.104Z,57.60
2017-09-07T14:12:46.599Z,57.70
2017-09-07T14:15:14.210Z,57.70
2017-09-07T14:17:41.870Z,57.60
2017-09-07T14:20:09.535Z,57.50
2017-09-07T14:22:37.031Z,57.60
2017-09-07T14:25:04.639Z,57.60
2017-09-07T14:27:32.138Z,57.50
2017-09-07T14:29:59.639Z,57.60
2017-09-07T14:32:27.220Z,57.40
2017-09-07T14:34:54.877Z,57.50
2017-09-07T14:37:22.403Z,57.40
2017-09-07T14:39:50.015Z,57.40
2017-09-07T14:42:17.520Z,57.40
2017-09-07T14:44:45.019Z,57.60
2017-09-07T14:47:12.526Z,57.40
2017-09-07T14:49:40.208Z,57.40
2017-09-07T14:52:07.723Z,57.50
2017-09-07T14:54:35.222Z,57.90
2017-09-07T14:57:02.799Z,57.40
2017-09-07T14:59:30.295Z,57.40
2017-09-07T15:01:58.090Z,57.50
2017-09-07T15:04:25.751Z,57.40
2017-09-07T15:06:53.251Z,57.40
2017-09-07T15:09:20.752Z,57.30
2017-09-07T15:11:48.320Z,57.30
2017-09-07T15:14:15.850Z,57.40
2017-09-07T15:16:43.635Z,57.90
2017-09-07T15:19:11.139Z,57.40
2017-09-07T15:21:38.631Z,57.40
2017-09-07T15:24:06.903Z,57.30
2017-09-07T15:26:34.676Z,57.30
2017-09-07T15:29:02.350Z,57.20
2017-09-07T15:31:29.999Z,57.30
2017-09-07T15:33:57.659Z,57.30
2017-09-07T15:36:25.163Z,57.20
2017-09-07T15:38:52.777Z,57.40
2017-09-07T15:41:20.279Z,57.30
2017-09-07T15:43:47.776Z,57.30
2017-09-07T15:46:15.367Z,57.20
2017-09-07T15:48:42.995Z,57.90
2017-09-07T15:51:10.494Z,57.40
2017-09-07T15:53:37.994Z,57.40
2017-09-07T15:56:05.555Z,57.30
2017-09-07T15:58:33.055Z,57.30
2017-09-07T16:01:00.716Z,57.50
2017-09-07T16:03:28.232Z,57.10
2017-09-07T16:05:55.783Z,54.70
2017-09-07T16:08:23.453Z,50.30
2017-09-07T16:10:51.106Z,49.40
2017-09-07T16:13:18.771Z,49.00
2017-09-07T16:15:46.270Z,48.40
2017-09-07T16:18:13.874Z,48.20
2017-09-07T16:20:41.395Z,47.80
2017-09-07T16:23:08.983Z,47.70
2017-09-07T16:25:36.479Z,47.70
2017-09-07T16:28:04.470Z,47.60
2017-09-07T16:30:31.967Z,47.90
2017-09-07T16:32:59.622Z,47.90
2017-09-07T16:35:27.119Z,48.50
2017-09-07T16:37:54.612Z,47.80
2017-09-07T16:40:23.011Z,48.00
2017-09-07T16:42:50.671Z,48.00
2017-09-07T16:45:18.333Z,48.20
2017-09-07T16:47:45.835Z,48.10
2017-09-07T16:50:13.351Z,49.40
2017-09-07T16:52:40.862Z,50.10
2017-09-07T16:55:08.546Z,51.70
2017-09-07T16:57:36.043Z,53.30
2017-09-07T17:00:03.664Z,53.30
2017-09-07T17:02:31.335Z,53.20
2017-09-07T17:04:58.975Z,53.30
2017-09-07T17:07:26.483Z,53.20
2017-09-07T17:09:54.906Z,53.00
2017-09-07T17:12:22.544Z,53.00
2017-09-07T17:14:50.055Z,53.10
2017-09-07T17:17:17.683Z,53.00
2017-09-07T17:19:45.181Z,53.00
2017-09-07T17:22:12.698Z,53.00
2017-09-07T17:24:40.227Z,52.90
2017-09-07T17:27:07.752Z,53.00
2017-09-07T17:29:35.243Z,52.90
2017-09-07T17:32:02.863Z,52.90
2017-09-07T17:34:30.363Z,53.20
2017-09-07T17:36:57.883Z,53.40
2017-09-07T17:39:25.391Z,53.60
2017-09-07T17:41:52.933Z,53.70
2017-09-07T17:44:20.492Z,54.40
2017-09-07T17:47:15.727Z,54.50
2017-09-07T17:49:43.338Z,54.40
2017-09-07T17:52:10.842Z,54.50
2017-09-07T17:54:38.399Z,54.60
2017-09-07T17:57:05.911Z,54.70
2017-09-07T17:59:33.685Z,54.80
2017-09-07T18:02:01.275Z,54.90
2017-09-07T18:04:28.870Z,54.90
2017-09-07T18:06:57.226Z,55.00
2017-09-07T18:09:24.994Z,55.00
2017-09-07T18:11:52.635Z,55.50
2017-09-07T18:14:20.143Z,55.80
2017-09-07T18:16:47.786Z,56.10
2017-09-07T18:19:16.051Z,56.30
2017-09-07T18:21:44.339Z,56.40
2017-09-07T18:24:12.613Z,56.40
2017-09-07T18:26:41.006Z,56.50
2017-09-07T18:29:08.560Z,56.50
2017-09-07T18:31:36.079Z,56.10
2017-09-07T18:34:03.646Z,56.00
2017-09-07T18:36:31.935Z,56.10
2017-09-07T18:38:59.518Z,56.10
2017-09-07T18:41:27.011Z,56.20
2017-09-07T18:43:54.631Z,56.20
2017-09-07T18:46:22.322Z,56.30
2017-09-07T18:48:49.941Z,55.70
2017-09-07T18:51:17.431Z,57.20
2017-09-07T18:53:45.047Z,57.10
2017-09-07T18:56:12.556Z,57.20
2017-09-07T18:58:40.827Z,57.40
2017-09-07T19:01:08.341Z,57.30
2017-09-07T19:03:36.102Z,57.40
2017-09-07T19:06:03.604Z,57.40
2017-09-07T19:08:31.864Z,57.50
2017-09-07T19:10:59.359Z,57.50
2017-09-07T19:13:27.624Z,57.50
2017-09-07T19:15:55.897Z,57.50
2017-09-07T19:18:24.171Z,57.60
2017-09-07T19:20:52.472Z,57.70
2017-09-07T19:23:20.065Z,57.60
2017-09-07T19:25:47.779Z,57.60
2017-09-07T19:28:15.354Z,57.60
2017-09-07T19:30:42.906Z,57.60
2017-09-07T19:33:10.414Z,57.60
2017-09-07T19:35:37.946Z,57.70
2017-09-07T19:38:05.438Z,57.60
2017-09-07T19:40:33.707Z,57.60
2017-09-07T19:43:02.113Z,57.70
2017-09-07T19:45:29.617Z,57.70
2017-09-07T19:47:57.178Z,57.70
2017-09-07T19:50:24.886Z,57.60
2017-09-07T19:52:52.542Z,57.60
2017-09-07T19:55:20.207Z,56.90
2017-09-07T19:57:47.711Z,56.90
2017-09-07T20:00:16.182Z,56.50
2017-09-07T20:02:43.798Z,56.50
2017-09-07T20:05:11.311Z,56.20
2017-09-07T20:07:39.087Z,57.90
2017-09-07T20:10:06.588Z,58.40
2017-09-07T20:12:34.091Z,58.00
2017-09-07T20:15:02.352Z,57.70
2017-09-07T20:17:29.945Z,57.70
2017-09-07T20:19:57.607Z,57.80
2017-09-07T20:22:25.107Z,57.70
2017-09-07T20:24:52.614Z,57.30
2017-09-07T20:27:20.189Z,57.20
2017-09-07T20:29:47.733Z,57.30
2017-09-07T20:32:15.312Z,57.10
2017-09-07T20:34:42.814Z,57.20
2017-09-07T20:37:11.219Z,57.20
2017-09-07T20:39:38.883Z,57.20
2017-09-07T20:42:06.518Z,56.90
2017-09-07T20:44:34.206Z,57.20
2017-09-07T20:47:01.851Z,57.20
2017-09-07T20:49:29.355Z,57.10
2017-09-07T20:51:56.887Z,57.00
2017-09-07T20:54:24.443Z,57.10
2017-09-07T20:56:51.963Z,56.90
2017-09-07T20:59:20.231Z,57.00
2017-09-07T21:01:48.599Z,56.90
2017-09-07T21:04:16.283Z,56.90
2017-09-07T21:06:43.799Z,56.90
2017-09-07T21:09:11.419Z,56.80
2017-09-07T21:11:39.047Z,56.90
2017-09-07T21:14:06.711Z,56.90
2017-09-07T21:16:34.376Z,57.00
2017-09-07T21:19:02.037Z,56.80
2017-09-07T21:21:29.599Z,56.90
2017-09-07T21:23:57.092Z,56.90
2017-09-07T21:26:24.800Z,56.80
2017-09-07T21:28:52.314Z,56.80
2017-09-07T21:31:19.824Z,56.60
2017-09-07T21:33:47.408Z,56.70
2017-09-07T21:36:14.892Z,56.60
2017-09-07T21:38:43.166Z,56.70
2017-09-07T21:41:11.431Z,57.20
2017-09-07T21:43:39.029Z,56.60
2017-09-07T21:46:06.539Z,56.50
2017-09-07T21:48:34.951Z,56.50
2017-09-07T21:51:02.619Z,56.50
2017-09-07T21:53:30.132Z,56.40
2017-09-07T21:55:57.639Z,56.40
2017-09-07T21:58:25.219Z,56.30
2017-09-07T22:00:52.715Z,56.40
2017-09-07T22:03:21.129Z,56.40
2017-09-07T22:05:48.777Z,56.30
2017-09-07T22:08:16.436Z,56.40
2017-09-07T22:10:44.091Z,56.30
2017-09-07T22:13:11.743Z,56.90
2017-09-07T22:15:39.243Z,56.30
2017-09-07T22:18:06.755Z,56.30
2017-09-07T22:20:35.019Z,56.20
2017-09-07T22:23:02.607Z,56.20
2017-09-07T22:25:30.098Z,56.20
2017-09-07T22:27:58.379Z,56.20
2017-09-07T22:30:25.947Z,56.30
2017-09-07T22:32:53.635Z,56.20
2017-09-07T22:35:21.144Z,56.30
2017-09-07T22:37:49.563Z,56.10
2017-09-07T22:40:17.223Z,56.10
2017-09-07T22:42:44.883Z,56.10
2017-09-07T22:45:12.543Z,56.10
2017-09-07T22:47:40.199Z,56.10
2017-09-07T22:50:07.699Z,56.10
2017-09-07T22:52:35.199Z,56.20
2017-09-07T22:55:02.726Z,56.20
2017-09-07T22:57:30.999Z,56.20
2017-09-07T22:59:58.518Z,56.80
2017-09-07T23:02:26.148Z,56.20
2017-09-07T23:04:53.674Z,56.10
2017-09-07T23:07:21.935Z,56.60
2017-09-07T23:09:49.459Z,56.10
2017-09-07T23:12:16.987Z,56.20
2017-09-07T23:14:44.647Z,56.20
2017-09-07T23:17:12.311Z,56.10
2017-09-07T23:19:39.838Z,56.20
2017-09-07T23:22:08.240Z,56.10
2017-09-07T23:24:35.857Z,56.00
2017-09-07T23:27:03.365Z,56.10
2017-09-07T23:29:30.887Z,56.10
2017-09-07T23:31:59.146Z,56.20
2017-09-07T23:34:26.743Z,56.00
2017-09-07T23:36:54.411Z,56.10
2017-09-07T23:39:21.938Z,56.10
2017-09-07T23:41:50.215Z,56.10
2017-09-07T23:44:17.988Z,56.10
2017-09-07T23:46:45.491Z,56.00
2017-09-07T23:49:13.103Z,56.00
2017-09-07T23:51:40.719Z,56.10
2017-09-07T23:54:08.237Z,56.00
2017-09-07T23:56:35.871Z,56.00
2017-09-07T23:59:03.528Z,56.00
